sensor_id;sensor_type;location;lat;lon;timestamp;P1;durP1;ratioP1;P2;durP2;ratioP2
15929;SDS011;8064;51.142;4.780;2023-07-13T00:00:41;4.60;;;1.37;;
15929;SDS011;8064;51.142;4.780;2023-07-13T00:03:07;5.30;;;1.67;;
15929;SDS011;8064;51.142;4.780;2023-07-13T00:05:33;4.80;;;1.57;;
15929;SDS011;8064;51.142;4.780;2023-07-13T00:07:59;4.43;;;1.63;;
15929;SDS011;8064;51.142;4.780;2023-07-13T00:10:25;3.67;;;1.40;;
15929;SDS011;8064;51.142;4.780;2023-07-13T00:12:51;3.57;;;1.33;;
15929;SDS011;8064;51.142;4.780;2023-07-13T00:15:22;7.03;;;2.07;;
15929;SDS011;8064;51.142;4.780;2023-07-13T00:17:50;5.33;;;1.43;;
15929;SDS011;8064;51.142;4.780;2023-07-13T00:20:17;4.27;;;1.13;;
15929;SDS011;8064;51.142;4.780;2023-07-13T00:22:43;5.87;;;1.70;;
15929;SDS011;8064;51.142;4.780;2023-07-13T00:25:10;3.83;;;1.30;;
15929;SDS011;8064;51.142;4.780;2023-07-13T00:27:37;12.10;;;1.80;;
15929;SDS011;8064;51.142;4.780;2023-07-13T00:30:03;5.33;;;1.97;;
15929;SDS011;8064;51.142;4.780;2023-07-13T00:32:30;5.10;;;1.50;;
15929;SDS011;8064;51.142;4.780;2023-07-13T00:34:56;7.07;;;1.60;;
15929;SDS011;8064;51.142;4.780;2023-07-13T00:37:23;6.27;;;1.50;;
15929;SDS011;8064;51.142;4.780;2023-07-13T00:39:49;8.47;;;1.70;;
15929;SDS011;8064;51.142;4.780;2023-07-13T00:42:15;4.50;;;1.57;;
15929;SDS011;8064;51.142;4.780;2023-07-13T00:44:41;4.33;;;1.40;;
15929;SDS011;8064;51.142;4.780;2023-07-13T00:47:06;9.70;;;1.90;;
15929;SDS011;8064;51.142;4.780;2023-07-13T00:49:33;8.07;;;1.87;;
15929;SDS011;8064;51.142;4.780;2023-07-13T00:52:03;5.73;;;1.40;;
15929;SDS011;8064;51.142;4.780;2023-07-13T00:54:33;7.77;;;1.70;;
15929;SDS011;8064;51.142;4.780;2023-07-13T00:57:04;6.50;;;1.67;;
15929;SDS011;8064;51.142;4.780;2023-07-13T00:59:33;5.27;;;1.57;;
15929;SDS011;8064;51.142;4.780;2023-07-13T01:02:00;5.43;;;1.57;;
15929;SDS011;8064;51.142;4.780;2023-07-13T01:04:27;6.63;;;1.90;;
15929;SDS011;8064;51.142;4.780;2023-07-13T01:06:53;4.87;;;1.50;;
15929;SDS011;8064;51.142;4.780;2023-07-13T01:09:19;7.07;;;1.50;;
15929;SDS011;8064;51.142;4.780;2023-07-13T01:11:45;6.10;;;1.63;;
15929;SDS011;8064;51.142;4.780;2023-07-13T01:14:12;6.73;;;1.60;;
15929;SDS011;8064;51.142;4.780;2023-07-13T01:16:39;6.23;;;1.87;;
15929;SDS011;8064;51.142;4.780;2023-07-13T01:19:12;4.93;;;1.70;;
15929;SDS011;8064;51.142;4.780;2023-07-13T01:22:01;5.97;;;1.60;;
15929;SDS011;8064;51.142;4.780;2023-07-13T01:24:29;6.53;;;1.60;;
15929;SDS011;8064;51.142;4.780;2023-07-13T01:26:55;7.47;;;1.90;;
15929;SDS011;8064;51.142;4.780;2023-07-13T01:29:21;6.13;;;1.90;;
15929;SDS011;8064;51.142;4.780;2023-07-13T01:31:47;7.80;;;2.03;;
15929;SDS011;8064;51.142;4.780;2023-07-13T01:34:13;6.13;;;1.57;;
15929;SDS011;8064;51.142;4.780;2023-07-13T01:36:39;3.63;;;1.40;;
15929;SDS011;8064;51.142;4.780;2023-07-13T01:39:04;8.63;;;1.50;;
15929;SDS011;8064;51.142;4.780;2023-07-13T01:41:30;5.37;;;1.40;;
15929;SDS011;8064;51.142;4.780;2023-07-13T01:43:56;6.57;;;1.67;;
15929;SDS011;8064;51.142;4.780;2023-07-13T01:46:22;3.70;;;1.53;;
15929;SDS011;8064;51.142;4.780;2023-07-13T01:48:47;5.50;;;1.53;;
15929;SDS011;8064;51.142;4.780;2023-07-13T01:51:15;5.53;;;1.47;;
15929;SDS011;8064;51.142;4.780;2023-07-13T01:53:41;6.17;;;1.80;;
15929;SDS011;8064;51.142;4.780;2023-07-13T01:56:07;8.97;;;1.70;;
15929;SDS011;8064;51.142;4.780;2023-07-13T01:58:32;5.13;;;1.60;;
15929;SDS011;8064;51.142;4.780;2023-07-13T02:00:58;4.70;;;1.93;;
15929;SDS011;8064;51.142;4.780;2023-07-13T02:03:24;6.50;;;1.47;;
15929;SDS011;8064;51.142;4.780;2023-07-13T02:05:50;4.30;;;1.50;;
15929;SDS011;8064;51.142;4.780;2023-07-13T02:08:15;3.63;;;1.40;;
15929;SDS011;8064;51.142;4.780;2023-07-13T02:10:41;8.03;;;2.13;;
15929;SDS011;8064;51.142;4.780;2023-07-13T02:13:07;3.40;;;1.53;;
15929;SDS011;8064;51.142;4.780;2023-07-13T02:15:33;6.13;;;1.87;;
15929;SDS011;8064;51.142;4.780;2023-07-13T02:17:59;7.93;;;2.27;;
15929;SDS011;8064;51.142;4.780;2023-07-13T02:20:25;9.17;;;1.63;;
15929;SDS011;8064;51.142;4.780;2023-07-13T02:22:51;4.43;;;1.60;;
15929;SDS011;8064;51.142;4.780;2023-07-13T02:25:17;6.43;;;1.90;;
15929;SDS011;8064;51.142;4.780;2023-07-13T02:27:43;6.13;;;1.90;;
15929;SDS011;8064;51.142;4.780;2023-07-13T02:30:09;4.03;;;1.47;;
15929;SDS011;8064;51.142;4.780;2023-07-13T02:32:36;9.30;;;1.90;;
15929;SDS011;8064;51.142;4.780;2023-07-13T02:35:02;6.83;;;2.00;;
15929;SDS011;8064;51.142;4.780;2023-07-13T02:37:28;6.10;;;1.87;;
15929;SDS011;8064;51.142;4.780;2023-07-13T02:39:55;5.83;;;1.90;;
15929;SDS011;8064;51.142;4.780;2023-07-13T02:42:20;7.10;;;1.60;;
15929;SDS011;8064;51.142;4.780;2023-07-13T02:44:46;6.13;;;2.00;;
15929;SDS011;8064;51.142;4.780;2023-07-13T02:47:13;7.57;;;2.30;;
15929;SDS011;8064;51.142;4.780;2023-07-13T02:49:39;5.50;;;1.87;;
15929;SDS011;8064;51.142;4.780;2023-07-13T02:52:05;6.40;;;1.80;;
15929;SDS011;8064;51.142;4.780;2023-07-13T02:54:31;5.40;;;1.77;;
15929;SDS011;8064;51.142;4.780;2023-07-13T02:56:57;5.67;;;1.87;;
15929;SDS011;8064;51.142;4.780;2023-07-13T02:59:23;7.33;;;1.83;;
15929;SDS011;8064;51.142;4.780;2023-07-13T03:01:49;6.53;;;1.80;;
15929;SDS011;8064;51.142;4.780;2023-07-13T03:04:14;5.53;;;1.80;;
15929;SDS011;8064;51.142;4.780;2023-07-13T03:06:44;7.73;;;2.23;;
15929;SDS011;8064;51.142;4.780;2023-07-13T03:09:10;8.20;;;2.00;;
15929;SDS011;8064;51.142;4.780;2023-07-13T03:11:37;8.30;;;2.10;;
15929;SDS011;8064;51.142;4.780;2023-07-13T03:14:03;6.37;;;2.00;;
15929;SDS011;8064;51.142;4.780;2023-07-13T03:16:29;8.83;;;1.90;;
15929;SDS011;8064;51.142;4.780;2023-07-13T03:18:55;7.87;;;1.90;;
15929;SDS011;8064;51.142;4.780;2023-07-13T03:21:21;7.97;;;2.13;;
15929;SDS011;8064;51.142;4.780;2023-07-13T03:23:47;6.03;;;1.90;;
15929;SDS011;8064;51.142;4.780;2023-07-13T03:26:14;6.77;;;2.47;;
15929;SDS011;8064;51.142;4.780;2023-07-13T03:28:43;5.07;;;1.83;;
15929;SDS011;8064;51.142;4.780;2023-07-13T03:31:11;10.13;;;2.17;;
15929;SDS011;8064;51.142;4.780;2023-07-13T03:33:39;8.60;;;2.43;;
15929;SDS011;8064;51.142;4.780;2023-07-13T03:36:05;8.13;;;2.30;;
15929;SDS011;8064;51.142;4.780;2023-07-13T03:38:32;8.77;;;2.47;;
15929;SDS011;8064;51.142;4.780;2023-07-13T03:40:58;6.27;;;2.37;;
15929;SDS011;8064;51.142;4.780;2023-07-13T03:43:24;7.63;;;2.17;;
15929;SDS011;8064;51.142;4.780;2023-07-13T03:45:50;9.33;;;2.40;;
15929;SDS011;8064;51.142;4.780;2023-07-13T03:48:16;10.07;;;2.73;;
15929;SDS011;8064;51.142;4.780;2023-07-13T03:50:41;6.67;;;2.50;;
15929;SDS011;8064;51.142;4.780;2023-07-13T03:53:07;9.70;;;2.53;;
15929;SDS011;8064;51.142;4.780;2023-07-13T03:55:33;6.90;;;2.20;;
15929;SDS011;8064;51.142;4.780;2023-07-13T03:58:22;9.97;;;2.77;;
15929;SDS011;8064;51.142;4.780;2023-07-13T04:01:06;5.60;;;2.00;;
15929;SDS011;8064;51.142;4.780;2023-07-13T04:03:33;8.73;;;2.67;;
15929;SDS011;8064;51.142;4.780;2023-07-13T04:06:00;6.80;;;2.60;;
15929;SDS011;8064;51.142;4.780;2023-07-13T04:08:28;8.10;;;2.40;;
15929;SDS011;8064;51.142;4.780;2023-07-13T04:10:55;8.63;;;2.97;;
15929;SDS011;8064;51.142;4.780;2023-07-13T04:13:21;9.23;;;2.43;;
15929;SDS011;8064;51.142;4.780;2023-07-13T04:15:48;7.97;;;2.40;;
15929;SDS011;8064;51.142;4.780;2023-07-13T04:18:14;8.30;;;2.63;;
15929;SDS011;8064;51.142;4.780;2023-07-13T04:20:40;12.00;;;3.30;;
15929;SDS011;8064;51.142;4.780;2023-07-13T04:23:05;10.97;;;3.00;;
15929;SDS011;8064;51.142;4.780;2023-07-13T04:25:31;6.87;;;3.10;;
15929;SDS011;8064;51.142;4.780;2023-07-13T04:27:57;8.67;;;2.80;;
15929;SDS011;8064;51.142;4.780;2023-07-13T04:30:23;9.07;;;3.67;;
15929;SDS011;8064;51.142;4.780;2023-07-13T04:32:50;13.23;;;3.97;;
15929;SDS011;8064;51.142;4.780;2023-07-13T04:35:17;14.97;;;4.17;;
15929;SDS011;8064;51.142;4.780;2023-07-13T04:37:46;9.10;;;3.30;;
15929;SDS011;8064;51.142;4.780;2023-07-13T04:40:13;9.30;;;3.40;;
15929;SDS011;8064;51.142;4.780;2023-07-13T04:42:39;9.00;;;3.30;;
15929;SDS011;8064;51.142;4.780;2023-07-13T04:45:06;11.20;;;3.17;;
15929;SDS011;8064;51.142;4.780;2023-07-13T04:47:32;15.97;;;3.47;;
15929;SDS011;8064;51.142;4.780;2023-07-13T04:49:58;11.70;;;3.63;;
15929;SDS011;8064;51.142;4.780;2023-07-13T04:52:24;8.33;;;3.17;;
15929;SDS011;8064;51.142;4.780;2023-07-13T04:54:50;11.90;;;3.00;;
15929;SDS011;8064;51.142;4.780;2023-07-13T04:57:16;10.30;;;2.93;;
15929;SDS011;8064;51.142;4.780;2023-07-13T04:59:41;8.87;;;2.93;;
15929;SDS011;8064;51.142;4.780;2023-07-13T05:02:07;12.37;;;3.30;;
15929;SDS011;8064;51.142;4.780;2023-07-13T05:04:33;8.77;;;2.87;;
15929;SDS011;8064;51.142;4.780;2023-07-13T05:06:59;10.73;;;3.10;;
15929;SDS011;8064;51.142;4.780;2023-07-13T05:09:25;9.30;;;3.30;;
15929;SDS011;8064;51.142;4.780;2023-07-13T05:11:51;8.67;;;3.10;;
15929;SDS011;8064;51.142;4.780;2023-07-13T05:14:17;10.97;;;3.00;;
15929;SDS011;8064;51.142;4.780;2023-07-13T05:16:43;13.37;;;3.10;;
15929;SDS011;8064;51.142;4.780;2023-07-13T05:19:09;10.30;;;3.27;;
15929;SDS011;8064;51.142;4.780;2023-07-13T05:21:35;8.17;;;2.53;;
15929;SDS011;8064;51.142;4.780;2023-07-13T05:24:01;13.60;;;3.50;;
15929;SDS011;8064;51.142;4.780;2023-07-13T05:26:26;8.90;;;2.90;;
15929;SDS011;8064;51.142;4.780;2023-07-13T05:28:52;10.83;;;3.30;;
15929;SDS011;8064;51.142;4.780;2023-07-13T05:31:18;9.30;;;3.17;;
15929;SDS011;8064;51.142;4.780;2023-07-13T05:33:44;12.03;;;3.20;;
15929;SDS011;8064;51.142;4.780;2023-07-13T05:36:10;12.53;;;3.83;;
15929;SDS011;8064;51.142;4.780;2023-07-13T05:38:35;9.40;;;2.70;;
15929;SDS011;8064;51.142;4.780;2023-07-13T05:41:01;8.97;;;2.73;;
15929;SDS011;8064;51.142;4.780;2023-07-13T05:43:27;11.60;;;3.50;;
15929;SDS011;8064;51.142;4.780;2023-07-13T05:45:53;7.37;;;2.53;;
15929;SDS011;8064;51.142;4.780;2023-07-13T05:48:22;10.27;;;3.07;;
15929;SDS011;8064;51.142;4.780;2023-07-13T05:50:48;7.97;;;3.00;;
15929;SDS011;8064;51.142;4.780;2023-07-13T05:53:14;12.40;;;3.47;;
15929;SDS011;8064;51.142;4.780;2023-07-13T05:55:41;11.93;;;3.50;;
15929;SDS011;8064;51.142;4.780;2023-07-13T05:58:08;8.80;;;3.10;;
15929;SDS011;8064;51.142;4.780;2023-07-13T06:00:33;7.23;;;2.60;;
15929;SDS011;8064;51.142;4.780;2023-07-13T06:02:59;7.57;;;2.87;;
15929;SDS011;8064;51.142;4.780;2023-07-13T06:05:25;10.53;;;3.07;;
15929;SDS011;8064;51.142;4.780;2023-07-13T06:07:52;11.43;;;2.77;;
15929;SDS011;8064;51.142;4.780;2023-07-13T06:10:17;14.07;;;2.80;;
15929;SDS011;8064;51.142;4.780;2023-07-13T06:12:43;11.37;;;3.00;;
15929;SDS011;8064;51.142;4.780;2023-07-13T06:15:09;9.87;;;2.70;;
15929;SDS011;8064;51.142;4.780;2023-07-13T06:17:35;12.90;;;3.07;;
15929;SDS011;8064;51.142;4.780;2023-07-13T06:20:01;9.93;;;3.57;;
15929;SDS011;8064;51.142;4.780;2023-07-13T06:22:27;8.23;;;2.80;;
15929;SDS011;8064;51.142;4.780;2023-07-13T06:24:52;8.23;;;3.30;;
15929;SDS011;8064;51.142;4.780;2023-07-13T06:27:18;9.20;;;3.00;;
15929;SDS011;8064;51.142;4.780;2023-07-13T06:29:44;10.90;;;2.70;;
15929;SDS011;8064;51.142;4.780;2023-07-13T06:32:10;10.37;;;3.13;;
15929;SDS011;8064;51.142;4.780;2023-07-13T06:34:36;14.07;;;3.47;;
15929;SDS011;8064;51.142;4.780;2023-07-13T06:37:02;14.23;;;3.00;;
15929;SDS011;8064;51.142;4.780;2023-07-13T06:39:27;10.50;;;3.23;;
15929;SDS011;8064;51.142;4.780;2023-07-13T06:41:53;10.23;;;3.13;;
15929;SDS011;8064;51.142;4.780;2023-07-13T06:44:19;12.47;;;3.10;;
15929;SDS011;8064;51.142;4.780;2023-07-13T06:46:44;12.43;;;3.33;;
15929;SDS011;8064;51.142;4.780;2023-07-13T06:49:10;13.07;;;3.43;;
15929;SDS011;8064;51.142;4.780;2023-07-13T06:51:36;9.50;;;3.40;;
15929;SDS011;8064;51.142;4.780;2023-07-13T06:54:03;11.57;;;3.03;;
15929;SDS011;8064;51.142;4.780;2023-07-13T06:56:29;10.43;;;2.90;;
15929;SDS011;8064;51.142;4.780;2023-07-13T06:58:55;11.97;;;3.23;;
15929;SDS011;8064;51.142;4.780;2023-07-13T07:01:20;11.40;;;3.50;;
15929;SDS011;8064;51.142;4.780;2023-07-13T07:03:46;13.30;;;3.30;;
15929;SDS011;8064;51.142;4.780;2023-07-13T07:06:18;11.60;;;3.30;;
15929;SDS011;8064;51.142;4.780;2023-07-13T07:08:45;9.47;;;3.33;;
15929;SDS011;8064;51.142;4.780;2023-07-13T07:11:12;10.40;;;3.30;;
15929;SDS011;8064;51.142;4.780;2023-07-13T07:13:39;12.03;;;2.80;;
15929;SDS011;8064;51.142;4.780;2023-07-13T07:16:05;9.07;;;2.93;;
15929;SDS011;8064;51.142;4.780;2023-07-13T07:18:32;11.57;;;3.10;;
15929;SDS011;8064;51.142;4.780;2023-07-13T07:20:57;9.87;;;2.77;;
15929;SDS011;8064;51.142;4.780;2023-07-13T07:23:23;10.57;;;3.50;;
15929;SDS011;8064;51.142;4.780;2023-07-13T07:25:49;11.67;;;3.27;;
15929;SDS011;8064;51.142;4.780;2023-07-13T07:28:16;10.07;;;3.17;;
15929;SDS011;8064;51.142;4.780;2023-07-13T07:30:43;10.73;;;3.13;;
15929;SDS011;8064;51.142;4.780;2023-07-13T07:33:10;9.80;;;2.77;;
15929;SDS011;8064;51.142;4.780;2023-07-13T07:35:36;9.27;;;2.90;;
15929;SDS011;8064;51.142;4.780;2023-07-13T07:38:02;10.07;;;3.27;;
15929;SDS011;8064;51.142;4.780;2023-07-13T07:40:28;10.83;;;3.40;;
15929;SDS011;8064;51.142;4.780;2023-07-13T07:42:54;7.80;;;3.23;;
15929;SDS011;8064;51.142;4.780;2023-07-13T07:45:20;9.32;;;3.03;;
15929;SDS011;8064;51.142;4.780;2023-07-13T07:47:46;6.50;;;2.75;;
15929;SDS011;8064;51.142;4.780;2023-07-13T07:50:12;11.70;;;2.80;;
15929;SDS011;8064;51.142;4.780;2023-07-13T07:52:38;10.50;;;3.33;;
15929;SDS011;8064;51.142;4.780;2023-07-13T07:55:05;11.48;;;2.80;;
15929;SDS011;8064;51.142;4.780;2023-07-13T07:57:31;10.43;;;3.30;;
15929;SDS011;8064;51.142;4.780;2023-07-13T07:59:57;10.95;;;3.13;;
15929;SDS011;8064;51.142;4.780;2023-07-13T08:02:24;9.15;;;2.53;;
15929;SDS011;8064;51.142;4.780;2023-07-13T08:04:50;8.40;;;2.80;;
15929;SDS011;8064;51.142;4.780;2023-07-13T08:07:16;9.82;;;3.20;;
15929;SDS011;8064;51.142;4.780;2023-07-13T08:09:42;7.97;;;3.10;;
15929;SDS011;8064;51.142;4.780;2023-07-13T08:12:08;8.27;;;2.90;;
15929;SDS011;8064;51.142;4.780;2023-07-13T08:14:34;12.50;;;3.33;;
15929;SDS011;8064;51.142;4.780;2023-07-13T08:17:00;9.30;;;2.72;;
15929;SDS011;8064;51.142;4.780;2023-07-13T08:19:26;8.02;;;2.90;;
15929;SDS011;8064;51.142;4.780;2023-07-13T08:21:51;10.10;;;2.88;;
15929;SDS011;8064;51.142;4.780;2023-07-13T08:24:17;31.63;;;3.63;;
15929;SDS011;8064;51.142;4.780;2023-07-13T08:26:44;10.40;;;3.03;;
15929;SDS011;8064;51.142;4.780;2023-07-13T08:29:11;8.77;;;2.75;;
15929;SDS011;8064;51.142;4.780;2023-07-13T08:31:37;7.85;;;2.80;;
15929;SDS011;8064;51.142;4.780;2023-07-13T08:34:03;7.15;;;2.80;;
15929;SDS011;8064;51.142;4.780;2023-07-13T08:36:29;7.93;;;2.70;;
15929;SDS011;8064;51.142;4.780;2023-07-13T08:38:54;8.63;;;2.53;;
15929;SDS011;8064;51.142;4.780;2023-07-13T08:41:21;6.90;;;2.42;;
15929;SDS011;8064;51.142;4.780;2023-07-13T08:43:49;6.45;;;2.20;;
15929;SDS011;8064;51.142;4.780;2023-07-13T08:46:21;10.07;;;2.78;;
15929;SDS011;8064;51.142;4.780;2023-07-13T08:48:52;8.95;;;2.60;;
15929;SDS011;8064;51.142;4.780;2023-07-13T08:54:12;7.25;;;2.65;;
15929;SDS011;8064;51.142;4.780;2023-07-13T08:56:54;7.53;;;2.70;;
15929;SDS011;8064;51.142;4.780;2023-07-13T08:59:25;7.90;;;2.80;;
15929;SDS011;8064;51.142;4.780;2023-07-13T09:02:00;9.43;;;2.38;;
15929;SDS011;8064;51.142;4.780;2023-07-13T09:10:26;7.47;;;2.75;;
15929;SDS011;8064;51.142;4.780;2023-07-13T09:15:32;7.22;;;2.28;;
15929;SDS011;8064;51.142;4.780;2023-07-13T09:18:31;5.82;;;2.25;;
15929;SDS011;8064;51.142;4.780;2023-07-13T09:23:41;7.85;;;2.40;;
15929;SDS011;8064;51.142;4.780;2023-07-13T09:28:56;5.18;;;2.05;;
15929;SDS011;8064;51.142;4.780;2023-07-13T09:34:16;5.70;;;2.38;;
15929;SDS011;8064;51.142;4.780;2023-07-13T09:36:43;5.57;;;1.90;;
15929;SDS011;8064;51.142;4.780;2023-07-13T09:42:00;6.18;;;2.60;;
15929;SDS011;8064;51.142;4.780;2023-07-13T09:47:29;7.00;;;2.30;;
15929;SDS011;8064;51.142;4.780;2023-07-13T09:57:56;7.30;;;2.00;;
15929;SDS011;8064;51.142;4.780;2023-07-13T10:00:23;4.50;;;2.05;;
15929;SDS011;8064;51.142;4.780;2023-07-13T10:03:04;7.45;;;1.90;;
15929;SDS011;8064;51.142;4.780;2023-07-13T10:05:40;7.30;;;2.25;;
15929;SDS011;8064;51.142;4.780;2023-07-13T10:08:15;6.90;;;2.42;;
15929;SDS011;8064;51.142;4.780;2023-07-13T10:10:43;5.97;;;1.63;;
15929;SDS011;8064;51.142;4.780;2023-07-13T10:15:56;6.60;;;2.30;;
15929;SDS011;8064;51.142;4.780;2023-07-13T10:18:24;6.35;;;1.95;;
15929;SDS011;8064;51.142;4.780;2023-07-13T10:20:53;6.78;;;1.92;;
15929;SDS011;8064;51.142;4.780;2023-07-13T10:23:32;9.50;;;2.08;;
15929;SDS011;8064;51.142;4.780;2023-07-13T10:25:59;5.10;;;1.85;;
15929;SDS011;8064;51.142;4.780;2023-07-13T10:28:29;6.13;;;2.20;;
15929;SDS011;8064;51.142;4.780;2023-07-13T10:30:58;5.35;;;1.83;;
15929;SDS011;8064;51.142;4.780;2023-07-13T10:33:25;6.65;;;1.90;;
15929;SDS011;8064;51.142;4.780;2023-07-13T10:35:54;5.22;;;1.80;;
15929;SDS011;8064;51.142;4.780;2023-07-13T10:38:28;5.25;;;1.80;;
15929;SDS011;8064;51.142;4.780;2023-07-13T10:41:09;4.72;;;1.70;;
15929;SDS011;8064;51.142;4.780;2023-07-13T10:43:43;4.75;;;1.85;;
15929;SDS011;8064;51.142;4.780;2023-07-13T10:46:14;7.72;;;1.67;;
15929;SDS011;8064;51.142;4.780;2023-07-13T10:48:43;5.07;;;1.95;;
15929;SDS011;8064;51.142;4.780;2023-07-13T10:51:13;4.10;;;1.50;;
15929;SDS011;8064;51.142;4.780;2023-07-13T10:53:40;2.42;;;1.52;;
15929;SDS011;8064;51.142;4.780;2023-07-13T10:56:10;4.25;;;1.58;;
15929;SDS011;8064;51.142;4.780;2023-07-13T10:58:44;4.97;;;1.85;;
15929;SDS011;8064;51.142;4.780;2023-07-13T11:01:12;4.93;;;1.50;;
15929;SDS011;8064;51.142;4.780;2023-07-13T11:09:17;3.80;;;1.67;;
15929;SDS011;8064;51.142;4.780;2023-07-13T11:11:45;4.03;;;1.65;;
15929;SDS011;8064;51.142;4.780;2023-07-13T11:20:18;8.15;;;2.22;;
15929;SDS011;8064;51.142;4.780;2023-07-13T11:25:50;4.57;;;1.60;;
15929;SDS011;8064;51.142;4.780;2023-07-13T11:28:17;5.35;;;1.98;;
15929;SDS011;8064;51.142;4.780;2023-07-13T11:36:06;3.78;;;2.05;;
15929;SDS011;8064;51.142;4.780;2023-07-13T11:38:39;5.95;;;1.90;;
15929;SDS011;8064;51.142;4.780;2023-07-13T11:41:13;3.22;;;1.52;;
15929;SDS011;8064;51.142;4.780;2023-07-13T11:44:12;4.43;;;1.75;;
15929;SDS011;8064;51.142;4.780;2023-07-13T11:46:44;3.35;;;1.65;;
15929;SDS011;8064;51.142;4.780;2023-07-13T11:49:16;5.32;;;1.67;;
15929;SDS011;8064;51.142;4.780;2023-07-13T11:51:43;4.57;;;1.90;;
15929;SDS011;8064;51.142;4.780;2023-07-13T11:56:59;5.05;;;1.45;;
15929;SDS011;8064;51.142;4.780;2023-07-13T11:59:31;2.67;;;1.30;;
15929;SDS011;8064;51.142;4.780;2023-07-13T12:01:58;3.30;;;1.65;;
15929;SDS011;8064;51.142;4.780;2023-07-13T12:07:11;3.65;;;1.42;;
15929;SDS011;8064;51.142;4.780;2023-07-13T12:09:42;6.90;;;1.70;;
15929;SDS011;8064;51.142;4.780;2023-07-13T12:12:11;5.00;;;1.85;;
15929;SDS011;8064;51.142;4.780;2023-07-13T12:14:39;4.25;;;1.80;;
15929;SDS011;8064;51.142;4.780;2023-07-13T12:17:08;7.03;;;1.90;;
15929;SDS011;8064;51.142;4.780;2023-07-13T12:19:48;4.70;;;1.60;;
15929;SDS011;8064;51.142;4.780;2023-07-13T12:22:16;6.18;;;2.08;;
15929;SDS011;8064;51.142;4.780;2023-07-13T12:24:43;6.47;;;1.90;;
15929;SDS011;8064;51.142;4.780;2023-07-13T12:29:51;4.82;;;1.90;;
15929;SDS011;8064;51.142;4.780;2023-07-13T12:32:23;8.38;;;2.72;;
15929;SDS011;8064;51.142;4.780;2023-07-13T12:34:51;4.88;;;1.83;;
15929;SDS011;8064;51.142;4.780;2023-07-13T12:37:19;5.38;;;2.40;;
15929;SDS011;8064;51.142;4.780;2023-07-13T12:39:47;4.35;;;2.45;;
15929;SDS011;8064;51.142;4.780;2023-07-13T12:42:25;5.80;;;3.10;;
15929;SDS011;8064;51.142;4.780;2023-07-13T12:44:56;7.97;;;3.03;;
15929;SDS011;8064;51.142;4.780;2023-07-13T12:47:25;6.18;;;2.90;;
15929;SDS011;8064;51.142;4.780;2023-07-13T12:49:54;5.28;;;2.80;;
15929;SDS011;8064;51.142;4.780;2023-07-13T12:52:24;5.93;;;2.80;;
15929;SDS011;8064;51.142;4.780;2023-07-13T12:55:10;4.45;;;2.88;;
15929;SDS011;8064;51.142;4.780;2023-07-13T13:00:38;3.77;;;2.30;;
15929;SDS011;8064;51.142;4.780;2023-07-13T13:03:05;4.63;;;2.67;;
15929;SDS011;8064;51.142;4.780;2023-07-13T13:05:43;4.82;;;2.42;;
15929;SDS011;8064;51.142;4.780;2023-07-13T13:08:11;3.73;;;2.50;;
15929;SDS011;8064;51.142;4.780;2023-07-13T13:10:37;5.60;;;2.20;;
15929;SDS011;8064;51.142;4.780;2023-07-13T13:13:04;3.70;;;1.97;;
15929;SDS011;8064;51.142;4.780;2023-07-13T13:15:29;4.93;;;2.10;;
15929;SDS011;8064;51.142;4.780;2023-07-13T13:17:55;2.90;;;1.77;;
15929;SDS011;8064;51.142;4.780;2023-07-13T13:20:24;4.53;;;1.80;;
15929;SDS011;8064;51.142;4.780;2023-07-13T13:22:52;3.75;;;1.58;;
15929;SDS011;8064;51.142;4.780;2023-07-13T13:25:19;3.50;;;1.63;;
15929;SDS011;8064;51.142;4.780;2023-07-13T13:27:45;3.00;;;1.55;;
15929;SDS011;8064;51.142;4.780;2023-07-13T13:30:12;2.22;;;1.42;;
15929;SDS011;8064;51.142;4.780;2023-07-13T13:32:39;2.67;;;1.60;;
15929;SDS011;8064;51.142;4.780;2023-07-13T13:35:12;2.35;;;1.50;;
15929;SDS011;8064;51.142;4.780;2023-07-13T13:37:38;3.38;;;1.85;;
15929;SDS011;8064;51.142;4.780;2023-07-13T13:40:13;2.95;;;1.42;;
15929;SDS011;8064;51.142;4.780;2023-07-13T13:42:40;2.45;;;1.48;;
15929;SDS011;8064;51.142;4.780;2023-07-13T13:45:07;3.38;;;1.80;;
15929;SDS011;8064;51.142;4.780;2023-07-13T13:47:34;4.75;;;1.52;;
15929;SDS011;8064;51.142;4.780;2023-07-13T13:50:01;4.10;;;1.75;;
15929;SDS011;8064;51.142;4.780;2023-07-13T13:52:36;2.00;;;1.80;;
15929;SDS011;8064;51.142;4.780;2023-07-13T13:55:04;3.70;;;1.58;;
15929;SDS011;8064;51.142;4.780;2023-07-13T13:57:36;1.98;;;1.40;;
15929;SDS011;8064;51.142;4.780;2023-07-13T14:00:02;5.55;;;1.83;;
15929;SDS011;8064;51.142;4.780;2023-07-13T14:02:28;2.92;;;1.52;;
15929;SDS011;8064;51.142;4.780;2023-07-13T14:04:58;3.03;;;1.50;;
15929;SDS011;8064;51.142;4.780;2023-07-13T14:07:26;4.25;;;1.65;;
15929;SDS011;8064;51.142;4.780;2023-07-13T14:09:53;3.58;;;1.80;;
15929;SDS011;8064;51.142;4.780;2023-07-13T14:12:21;4.75;;;1.70;;
15929;SDS011;8064;51.142;4.780;2023-07-13T14:14:48;2.22;;;1.63;;
15929;SDS011;8064;51.142;4.780;2023-07-13T14:19:56;2.65;;;1.45;;
15929;SDS011;8064;51.142;4.780;2023-07-13T14:22:23;3.10;;;1.50;;
15929;SDS011;8064;51.142;4.780;2023-07-13T14:24:51;4.85;;;1.60;;
15929;SDS011;8064;51.142;4.780;2023-07-13T14:27:18;3.83;;;2.05;;
15929;SDS011;8064;51.142;4.780;2023-07-13T14:29:44;1.70;;;1.23;;
15929;SDS011;8064;51.142;4.780;2023-07-13T14:32:10;3.70;;;1.58;;
15929;SDS011;8064;51.142;4.780;2023-07-13T14:34:37;2.50;;;1.30;;
15929;SDS011;8064;51.142;4.780;2023-07-13T14:37:03;4.00;;;1.50;;
15929;SDS011;8064;51.142;4.780;2023-07-13T14:39:29;3.55;;;1.40;;
15929;SDS011;8064;51.142;4.780;2023-07-13T14:41:56;3.15;;;1.48;;
15929;SDS011;8064;51.142;4.780;2023-07-13T14:44:32;3.58;;;1.55;;
15929;SDS011;8064;51.142;4.780;2023-07-13T14:46:59;7.05;;;1.80;;
15929;SDS011;8064;51.142;4.780;2023-07-13T14:49:38;2.70;;;1.30;;
15929;SDS011;8064;51.142;4.780;2023-07-13T14:52:19;2.10;;;1.50;;
15929;SDS011;8064;51.142;4.780;2023-07-13T14:54:46;3.78;;;1.58;;
15929;SDS011;8064;51.142;4.780;2023-07-13T14:57:13;4.03;;;1.60;;
15929;SDS011;8064;51.142;4.780;2023-07-13T14:59:42;2.72;;;1.65;;
15929;SDS011;8064;51.142;4.780;2023-07-13T15:07:52;4.55;;;1.85;;
15929;SDS011;8064;51.142;4.780;2023-07-13T15:10:20;4.40;;;1.60;;
15929;SDS011;8064;51.142;4.780;2023-07-13T15:12:50;5.82;;;2.00;;
15929;SDS011;8064;51.142;4.780;2023-07-13T15:15:17;3.33;;;1.50;;
15929;SDS011;8064;51.142;4.780;2023-07-13T15:17:44;3.10;;;1.50;;
15929;SDS011;8064;51.142;4.780;2023-07-13T15:22:41;4.13;;;1.48;;
15929;SDS011;8064;51.142;4.780;2023-07-13T15:25:11;1.92;;;1.42;;
15929;SDS011;8064;51.142;4.780;2023-07-13T15:27:58;2.95;;;1.52;;
15929;SDS011;8064;51.142;4.780;2023-07-13T15:30:25;4.40;;;1.90;;
15929;SDS011;8064;51.142;4.780;2023-07-13T15:32:54;3.38;;;1.25;;
15929;SDS011;8064;51.142;4.780;2023-07-13T15:35:24;2.65;;;1.38;;
15929;SDS011;8064;51.142;4.780;2023-07-13T15:37:51;4.93;;;1.80;;
15929;SDS011;8064;51.142;4.780;2023-07-13T15:40:17;2.92;;;1.40;;
15929;SDS011;8064;51.142;4.780;2023-07-13T15:42:46;3.45;;;1.70;;
15929;SDS011;8064;51.142;4.780;2023-07-13T15:47:57;2.80;;;1.48;;
15929;SDS011;8064;51.142;4.780;2023-07-13T15:50:23;4.05;;;1.58;;
15929;SDS011;8064;51.142;4.780;2023-07-13T15:52:52;4.18;;;1.60;;
15929;SDS011;8064;51.142;4.780;2023-07-13T15:55:20;2.67;;;1.48;;
15929;SDS011;8064;51.142;4.780;2023-07-13T15:57:48;3.95;;;1.75;;
15929;SDS011;8064;51.142;4.780;2023-07-13T16:03:00;5.40;;;1.77;;
15929;SDS011;8064;51.142;4.780;2023-07-13T16:05:26;7.85;;;1.80;;
15929;SDS011;8064;51.142;4.780;2023-07-13T16:07:52;2.67;;;1.88;;
15929;SDS011;8064;51.142;4.780;2023-07-13T16:13:07;6.40;;;1.92;;
15929;SDS011;8064;51.142;4.780;2023-07-13T16:15:39;4.95;;;2.17;;
15929;SDS011;8064;51.142;4.780;2023-07-13T16:18:09;3.72;;;1.40;;
15929;SDS011;8064;51.142;4.780;2023-07-13T16:20:37;4.07;;;1.73;;
15929;SDS011;8064;51.142;4.780;2023-07-13T16:23:03;4.72;;;2.00;;
15929;SDS011;8064;51.142;4.780;2023-07-13T16:25:29;2.92;;;1.60;;
15929;SDS011;8064;51.142;4.780;2023-07-13T16:27:55;3.42;;;1.45;;